createdAt,value
2018-07-30T00:00:06.765Z,0.00
2018-07-30T00:01:06.729Z,0.00
2018-07-30T00:02:06.698Z,0.00
2018-07-30T00:03:06.673Z,0.00
2018-07-30T00:04:06.666Z,0.00
2018-07-30T00:05:06.609Z,0.00
2018-07-30T00:06:06.588Z,0.00
2018-07-30T00:07:06.554Z,0.00
2018-07-30T00:08:06.516Z,0.00
2018-07-30T00:09:06.495Z,0.00
2018-07-30T00:10:06.465Z,0.00
2018-07-30T00:11:06.425Z,0.00
2018-07-30T00:12:06.389Z,0.00
2018-07-30T00:13:06.369Z,0.00
2018-07-30T00:14:06.385Z,0.00
2018-07-30T00:15:06.295Z,0.00
2018-07-30T00:16:06.263Z,0.00
2018-07-30T00:17:06.241Z,0.00
2018-07-30T00:18:06.218Z,0.00
2018-07-30T00:19:06.188Z,0.00
2018-07-30T00:20:06.159Z,0.00
2018-07-30T00:21:06.140Z,0.00
2018-07-30T00:22:06.088Z,0.00
2018-07-30T00:23:06.046Z,0.00
2018-07-30T00:24:06.034Z,0.00
2018-07-30T00:25:05.986Z,0.00
2018-07-30T00:26:05.965Z,0.00
2018-07-30T00:27:05.932Z,0.00
2018-07-30T00:28:05.903Z,0.00
2018-07-30T00:29:05.863Z,0.00
2018-07-30T00:30:05.838Z,0.00
2018-07-30T00:31:05.802Z,0.00
2018-07-30T00:32:05.767Z,0.00
2018-07-30T00:33:05.753Z,0.00
2018-07-30T00:34:05.703Z,0.00
2018-07-30T00:35:05.682Z,0.00
2018-07-30T00:36:05.660Z,0.00
2018-07-30T00:37:05.621Z,0.00
2018-07-30T00:38:05.579Z,0.00
2018-07-30T00:39:05.545Z,0.00
2018-07-30T00:40:05.526Z,0.00
2018-07-30T00:41:05.490Z,0.00
2018-07-30T00:42:05.477Z,0.00
2018-07-30T00:43:05.431Z,0.00
2018-07-30T00:44:05.436Z,0.00
2018-07-30T00:45:05.381Z,0.00
2018-07-30T00:46:05.330Z,0.00
2018-07-30T00:47:05.350Z,0.00
2018-07-30T00:48:05.304Z,0.00
2018-07-30T00:49:05.245Z,0.00
2018-07-30T00:50:05.211Z,0.00
2018-07-30T00:51:05.175Z,0.00
2018-07-30T00:52:05.160Z,0.00
2018-07-30T00:53:05.131Z,0.00
2018-07-30T00:54:05.089Z,0.00
2018-07-30T00:55:05.054Z,0.00
2018-07-30T00:56:05.038Z,0.00
2018-07-30T00:57:04.996Z,0.00
2018-07-30T00:58:04.964Z,0.00
2018-07-30T00:59:04.943Z,0.00
2018-07-30T01:00:04.902Z,0.00
2018-07-30T01:01:04.907Z,0.00
2018-07-30T01:02:04.836Z,0.00
2018-07-30T01:03:04.804Z,0.00
2018-07-30T01:04:04.781Z,0.00
2018-07-30T01:05:04.746Z,0.00
2018-07-30T01:06:04.722Z,0.00
2018-07-30T01:07:04.697Z,0.00
2018-07-30T01:08:04.681Z,0.00
2018-07-30T01:09:04.628Z,0.00
2018-07-30T01:10:04.649Z,0.00
2018-07-30T01:11:04.546Z,0.00
2018-07-30T01:12:04.530Z,0.00
2018-07-30T01:13:04.497Z,0.00
2018-07-30T01:14:04.461Z,0.00
2018-07-30T01:15:04.423Z,0.00
2018-07-30T01:16:04.419Z,0.00
2018-07-30T01:17:04.370Z,0.00
2018-07-30T01:18:04.327Z,0.00
2018-07-30T01:19:04.313Z,0.00
2018-07-30T01:20:04.297Z,0.00
2018-07-30T01:21:04.247Z,0.00
2018-07-30T01:22:04.218Z,0.00
2018-07-30T01:23:10.985Z,0.00
2018-07-30T01:24:04.148Z,0.00
2018-07-30T01:25:04.112Z,0.00
2018-07-30T01:26:04.096Z,0.00
2018-07-30T01:27:04.051Z,0.00
2018-07-30T01:28:04.024Z,0.00
2018-07-30T01:29:03.988Z,0.00
2018-07-30T01:30:03.997Z,0.00
2018-07-30T01:31:03.939Z,0.00
2018-07-30T01:32:03.914Z,0.00
2018-07-30T01:33:03.871Z,0.00
2018-07-30T01:34:03.852Z,0.00
2018-07-30T01:35:03.808Z,0.00
2018-07-30T01:36:03.787Z,0.00
2018-07-30T01:37:03.730Z,0.00
2018-07-30T01:38:03.824Z,0.00
2018-07-30T01:39:03.683Z,0.00
2018-07-30T01:40:03.659Z,0.00
2018-07-30T01:41:03.659Z,0.00
2018-07-30T01:42:03.593Z,0.00
2018-07-30T01:43:03.591Z,0.00
2018-07-30T01:44:03.528Z,0.00
2018-07-30T01:45:03.490Z,0.00
2018-07-30T01:46:03.484Z,0.00
2018-07-30T01:47:03.502Z,0.00
2018-07-30T01:48:03.394Z,0.00
2018-07-30T01:49:03.390Z,0.00
2018-07-30T01:50:03.325Z,0.00
2018-07-30T01:51:03.317Z,0.00
2018-07-30T01:52:03.288Z,0.00
2018-07-30T01:53:03.254Z,0.00
2018-07-30T01:54:03.204Z,0.00
2018-07-30T01:55:03.162Z,0.00
2018-07-30T01:56:03.131Z,0.00
2018-07-30T01:57:03.162Z,0.00
2018-07-30T01:58:03.077Z,0.00
2018-07-30T01:59:03.076Z,0.00
2018-07-30T02:00:03.006Z,0.00
2018-07-30T02:01:02.997Z,0.00
2018-07-30T02:02:03.006Z,0.00
2018-07-30T02:03:02.909Z,0.00
2018-07-30T02:04:02.885Z,0.00
2018-07-30T02:05:02.865Z,0.00
2018-07-30T02:06:02.831Z,0.00
2018-07-30T02:07:02.796Z,0.00
2018-07-30T02:08:02.757Z,0.00
2018-07-30T02:09:02.731Z,0.00
2018-07-30T02:10:02.714Z,0.00
2018-07-30T02:11:02.656Z,0.00
2018-07-30T02:12:02.623Z,0.00
2018-07-30T02:13:02.647Z,0.00
2018-07-30T02:14:02.567Z,0.00
2018-07-30T02:15:02.535Z,0.00
2018-07-30T02:16:02.602Z,0.00
2018-07-30T02:17:02.497Z,0.00
2018-07-30T02:18:02.451Z,0.00
2018-07-30T02:19:02.416Z,0.00
2018-07-30T02:20:02.400Z,0.00
2018-07-30T02:21:02.340Z,0.00
2018-07-30T02:22:02.314Z,0.00
2018-07-30T02:23:02.281Z,0.00
2018-07-30T02:24:02.292Z,0.00
2018-07-30T02:25:02.244Z,0.00
2018-07-30T02:26:02.197Z,0.00
2018-07-30T02:27:02.163Z,0.00
2018-07-30T02:28:02.169Z,0.00
2018-07-30T02:29:02.089Z,0.00
2018-07-30T02:30:02.058Z,0.00
2018-07-30T02:31:02.071Z,0.00
2018-07-30T02:32:02.023Z,0.00
2018-07-30T02:33:01.955Z,0.00
2018-07-30T02:34:01.951Z,0.00
2018-07-30T02:35:01.913Z,0.00
2018-07-30T02:36:01.878Z,0.00
2018-07-30T02:37:01.851Z,0.00
2018-07-30T02:38:01.877Z,0.00
2018-07-30T02:39:01.775Z,0.00
2018-07-30T02:40:01.743Z,0.00
2018-07-30T02:41:01.720Z,0.00
2018-07-30T02:42:01.701Z,0.00
2018-07-30T02:43:01.651Z,0.00
2018-07-30T02:44:01.616Z,0.00
2018-07-30T02:45:01.596Z,0.00
2018-07-30T02:46:01.545Z,0.00
2018-07-30T02:47:01.573Z,0.00
2018-07-30T02:48:01.486Z,0.00
2018-07-30T02:49:01.461Z,0.00
2018-07-30T02:50:01.467Z,0.00
2018-07-30T02:51:01.381Z,0.00
2018-07-30T02:52:01.389Z,0.00
2018-07-30T02:53:01.318Z,0.00
2018-07-30T02:54:01.299Z,0.00
2018-07-30T02:55:01.270Z,0.00
2018-07-30T02:56:01.223Z,4.00
2018-07-30T02:57:01.187Z,4.00
2018-07-30T02:58:01.162Z,4.00
2018-07-30T02:59:01.153Z,4.00
2018-07-30T03:00:01.110Z,4.00
2018-07-30T03:01:01.094Z,8.00
2018-07-30T03:02:01.026Z,4.00
2018-07-30T03:03:00.994Z,8.00
2018-07-30T03:04:00.973Z,8.00
2018-07-30T03:05:00.928Z,12.00
2018-07-30T03:06:00.893Z,12.00
2018-07-30T03:07:00.866Z,16.00
2018-07-30T03:08:00.840Z,20.00
2018-07-30T03:09:00.799Z,20.00
2018-07-30T03:10:00.759Z,20.00
2018-07-30T03:11:00.754Z,24.00
2018-07-30T03:12:00.704Z,28.00
2018-07-30T03:13:00.664Z,36.00
2018-07-30T03:14:00.633Z,40.00
2018-07-30T03:15:00.610Z,48.00
2018-07-30T03:16:00.569Z,52.00
2018-07-30T03:17:00.537Z,60.00
2018-07-30T03:18:00.527Z,72.00
2018-07-30T03:19:00.494Z,80.00
2018-07-30T03:20:00.443Z,96.00
2018-07-30T03:21:00.406Z,104.00
2018-07-30T03:22:00.418Z,120.00
2018-07-30T03:23:00.350Z,136.00
2018-07-30T03:24:00.308Z,152.00
2018-07-30T03:25:00.314Z,168.00
2018-07-30T03:26:00.260Z,188.00
2018-07-30T03:27:00.234Z,208.00
2018-07-30T03:28:00.190Z,228.00
2018-07-30T03:29:00.148Z,256.00
2018-07-30T03:30:00.114Z,280.00
2018-07-30T03:31:00.099Z,312.00
2018-07-30T03:32:00.065Z,336.00
2018-07-30T03:33:00.053Z,368.00
2018-07-30T03:33:59.992Z,404.00
2018-07-30T03:34:59.948Z,436.00
2018-07-30T03:35:59.935Z,472.00
2018-07-30T03:36:59.899Z,512.00
2018-07-30T03:38:00.560Z,556.00
2018-07-30T03:39:00.560Z,596.00
2018-07-30T03:40:00.532Z,644.00
2018-07-30T03:41:00.536Z,688.00
2018-07-30T03:41:59.747Z,736.00
2018-07-30T03:42:59.689Z,788.00
2018-07-30T03:43:59.679Z,836.00
2018-07-30T03:44:59.652Z,888.00
2018-07-30T03:45:59.608Z,940.00
2018-07-30T03:46:59.558Z,992.00
2018-07-30T03:47:59.536Z,1048.00
2018-07-30T03:48:59.500Z,1104.00
2018-07-30T03:49:59.482Z,1156.00
2018-07-30T03:50:59.447Z,1212.00
2018-07-30T03:51:59.433Z,1260.00
2018-07-30T03:52:59.372Z,1320.00
2018-07-30T03:53:59.346Z,1376.00
2018-07-30T03:54:59.310Z,1436.00
2018-07-30T03:55:59.273Z,1496.00
2018-07-30T03:56:59.233Z,1552.00
2018-07-30T03:57:59.269Z,1608.00
2018-07-30T03:58:59.171Z,1668.00
2018-07-30T03:59:59.159Z,1736.00
2018-07-30T04:00:59.123Z,1796.00
2018-07-30T04:01:59.106Z,1868.00
2018-07-30T04:02:59.047Z,1932.00
2018-07-30T04:03:59.003Z,2008.00
2018-07-30T04:04:58.976Z,2092.00
2018-07-30T04:05:58.960Z,2184.00
2018-07-30T04:06:58.916Z,2272.00
2018-07-30T04:07:58.940Z,2360.00
2018-07-30T04:08:58.875Z,2460.00
2018-07-30T04:09:58.802Z,2560.00
2018-07-30T04:10:58.772Z,2652.00
2018-07-30T04:11:58.753Z,2760.00
2018-07-30T04:12:58.728Z,2864.00
2018-07-30T04:13:58.767Z,2988.00
2018-07-30T04:14:58.652Z,3140.00
2018-07-30T04:15:58.702Z,3300.00
2018-07-30T04:16:58.574Z,3464.00
2018-07-30T04:17:58.541Z,3604.00
2018-07-30T04:18:58.522Z,3732.00
2018-07-30T04:19:58.490Z,3852.00
2018-07-30T04:20:58.446Z,3972.00
2018-07-30T04:21:58.423Z,4100.00
2018-07-30T04:22:58.386Z,4232.00
2018-07-30T04:23:58.341Z,4384.00
2018-07-30T04:24:58.325Z,4532.00
2018-07-30T04:25:58.275Z,4684.00
2018-07-30T04:26:58.242Z,4836.00
2018-07-30T04:27:58.217Z,4988.00
2018-07-30T04:28:58.180Z,5132.00
2018-07-30T04:29:58.148Z,5224.00
2018-07-30T04:30:58.117Z,5268.00
2018-07-30T04:31:58.122Z,5320.00
2018-07-30T04:32:58.049Z,5388.00
2018-07-30T04:33:58.041Z,5504.00
2018-07-30T04:34:58.027Z,5632.00
2018-07-30T04:35:57.960Z,5732.00
2018-07-30T04:36:57.925Z,5848.00
2018-07-30T04:37:57.897Z,5976.00
2018-07-30T04:38:57.853Z,6088.00
2018-07-30T04:39:57.818Z,6184.00
2018-07-30T04:40:57.803Z,6268.00
2018-07-30T04:41:57.783Z,6328.00
2018-07-30T04:42:57.719Z,6372.00
2018-07-30T04:43:57.696Z,6424.00
2018-07-30T04:44:57.679Z,6476.00
2018-07-30T04:45:57.641Z,6540.00
2018-07-30T04:46:57.645Z,6612.00
2018-07-30T04:47:57.564Z,6672.00
2018-07-30T04:48:57.543Z,6724.00
2018-07-30T04:49:57.495Z,6796.00
2018-07-30T04:50:57.530Z,6888.00
2018-07-30T04:51:57.441Z,7012.00
2018-07-30T04:52:57.401Z,7228.00
2018-07-30T04:53:57.365Z,7416.00
2018-07-30T04:54:57.332Z,7256.00
2018-07-30T04:55:57.306Z,7256.00
2018-07-30T04:56:57.285Z,7328.00
2018-07-30T04:57:57.253Z,7408.00
2018-07-30T04:58:57.202Z,7412.00
2018-07-30T04:59:57.178Z,7712.00
2018-07-30T05:00:57.134Z,7968.00
2018-07-30T05:01:57.126Z,7876.00
2018-07-30T05:02:57.074Z,8076.00
2018-07-30T05:03:57.109Z,8168.00
2018-07-30T05:04:57.009Z,7980.00
2018-07-30T05:05:57.000Z,8080.00
2018-07-30T05:06:56.972Z,8384.00
2018-07-30T05:07:56.946Z,8808.00
2018-07-30T05:08:56.894Z,9132.00
2018-07-30T05:09:56.853Z,9184.00
2018-07-30T05:10:56.818Z,10724.00
2018-07-30T05:11:56.808Z,13960.00
2018-07-30T05:12:56.773Z,16128.00
2018-07-30T05:13:56.727Z,14904.00
2018-07-30T05:14:56.682Z,18240.00
2018-07-30T05:15:56.682Z,21056.00
2018-07-30T05:16:56.628Z,22272.00
2018-07-30T05:17:56.602Z,20928.00
2018-07-30T05:18:56.584Z,21024.00
2018-07-30T05:19:56.531Z,21184.00
2018-07-30T05:20:56.503Z,21344.00
2018-07-30T05:21:56.477Z,22944.00
2018-07-30T05:22:56.436Z,23744.00
2018-07-30T05:23:56.432Z,23808.00
2018-07-30T05:24:56.377Z,24640.00
2018-07-30T05:25:56.370Z,25952.00
2018-07-30T05:26:56.373Z,24384.00
2018-07-30T05:27:56.301Z,22368.00
2018-07-30T05:28:56.270Z,19616.00
2018-07-30T05:29:56.272Z,15012.00
2018-07-30T05:30:56.202Z,10500.00
2018-07-30T05:31:56.186Z,9412.00
2018-07-30T05:32:56.158Z,9400.00
2018-07-30T05:33:56.126Z,10076.00
2018-07-30T05:34:56.087Z,10812.00
2018-07-30T05:35:56.051Z,10184.00
2018-07-30T05:36:56.052Z,9944.00
2018-07-30T05:37:56.029Z,10208.00
2018-07-30T05:38:55.975Z,10688.00
2018-07-30T05:39:55.954Z,12072.00
2018-07-30T05:40:55.933Z,11908.00
2018-07-30T05:41:55.947Z,10472.00
2018-07-30T05:42:55.873Z,10316.00
2018-07-30T05:43:55.828Z,10292.00
2018-07-30T05:44:55.825Z,10648.00
2018-07-30T05:45:55.807Z,10640.00
2018-07-30T05:46:55.833Z,10360.00
2018-07-30T05:47:55.705Z,10392.00
2018-07-30T05:48:55.682Z,10696.00
2018-07-30T05:49:55.694Z,10788.00
2018-07-30T05:50:55.625Z,10728.00
2018-07-30T05:51:55.647Z,10648.00
2018-07-30T05:52:55.602Z,10660.00
2018-07-30T05:53:55.542Z,10888.00
2018-07-30T05:54:55.547Z,11340.00
2018-07-30T05:55:55.484Z,13016.00
2018-07-30T05:56:55.467Z,12176.00
2018-07-30T05:57:55.434Z,10972.00
2018-07-30T05:58:55.413Z,10948.00
2018-07-30T05:59:55.380Z,10820.00
2018-07-30T06:00:55.412Z,10844.00
2018-07-30T06:01:55.338Z,10916.00
2018-07-30T06:02:55.274Z,11576.00
2018-07-30T06:03:55.313Z,12188.00
2018-07-30T06:04:55.231Z,11612.00
2018-07-30T06:05:55.199Z,11652.00
2018-07-30T06:06:55.219Z,11536.00
2018-07-30T06:07:55.139Z,11380.00
2018-07-30T06:08:55.128Z,11424.00
2018-07-30T06:09:55.103Z,11496.00
2018-07-30T06:10:55.069Z,11568.00
2018-07-30T06:11:55.048Z,11644.00
2018-07-30T06:12:55.003Z,11856.00
2018-07-30T06:13:54.978Z,12080.00
2018-07-30T06:14:54.942Z,12128.00
2018-07-30T06:15:54.916Z,12156.00
2018-07-30T06:16:54.878Z,12496.00
2018-07-30T06:17:54.852Z,13908.00
2018-07-30T06:18:54.811Z,14220.00
2018-07-30T06:19:54.779Z,16332.00
2018-07-30T06:20:54.861Z,16608.00
2018-07-30T06:21:54.731Z,14996.00
2018-07-30T06:22:54.708Z,14644.00
2018-07-30T06:23:54.685Z,13164.00
2018-07-30T06:24:54.647Z,12172.00
2018-07-30T06:25:54.637Z,12064.00
2018-07-30T06:26:54.704Z,11964.00
2018-07-30T06:27:54.604Z,11964.00
2018-07-30T06:28:54.514Z,11896.00
2018-07-30T06:29:54.493Z,11780.00
2018-07-30T06:30:54.460Z,11768.00
2018-07-30T06:31:54.451Z,11816.00
2018-07-30T06:32:54.429Z,11800.00
2018-07-30T06:33:54.383Z,11916.00
2018-07-30T06:34:54.347Z,12912.00
2018-07-30T06:35:54.342Z,12756.00
2018-07-30T06:36:54.303Z,11924.00
2018-07-30T06:37:54.281Z,11976.00
2018-07-30T06:38:54.222Z,12024.00
2018-07-30T06:39:54.198Z,12048.00
2018-07-30T06:40:54.168Z,12020.00
2018-07-30T06:41:54.136Z,12048.00
2018-07-30T06:42:54.119Z,12056.00
2018-07-30T06:43:54.097Z,12088.00
2018-07-30T06:44:54.069Z,12132.00
2018-07-30T06:45:54.028Z,12188.00
2018-07-30T06:46:54.025Z,12304.00
2018-07-30T06:47:54.003Z,12400.00
2018-07-30T06:48:53.982Z,12412.00
2018-07-30T06:49:53.913Z,12508.00
2018-07-30T06:50:53.899Z,12740.00
2018-07-30T06:51:53.880Z,13084.00
2018-07-30T06:52:53.837Z,13396.00
2018-07-30T06:53:53.798Z,14124.00
2018-07-30T06:54:53.782Z,14856.00
2018-07-30T06:55:53.748Z,19272.00
2018-07-30T06:56:53.731Z,28704.00
2018-07-30T06:57:53.712Z,38784.00
2018-07-30T06:58:53.690Z,51712.00
2018-07-30T06:59:53.637Z,62848.00
2018-07-30T07:00:53.604Z,66272.00
2018-07-30T07:01:53.587Z,67392.00
2018-07-30T07:02:53.546Z,65600.00
2018-07-30T07:03:53.526Z,63136.00
2018-07-30T07:04:53.560Z,62336.00
2018-07-30T07:05:53.476Z,63840.00
2018-07-30T07:06:53.472Z,67008.00
2018-07-30T07:07:53.422Z,70656.00
2018-07-30T07:08:53.415Z,71680.00
2018-07-30T07:09:53.370Z,67360.00
2018-07-30T07:10:53.406Z,66528.00
2018-07-30T07:11:53.382Z,70464.00
2018-07-30T07:12:53.312Z,69920.00
2018-07-30T07:13:53.297Z,68288.00
2018-07-30T07:14:53.339Z,67872.00
2018-07-30T07:15:53.266Z,69568.00
2018-07-30T07:16:53.232Z,71904.00
2018-07-30T07:17:53.212Z,74400.00
2018-07-30T07:18:53.173Z,73536.00
2018-07-30T07:19:53.226Z,71328.00
2018-07-30T07:20:53.176Z,70816.00
2018-07-30T07:21:53.217Z,69824.00
2018-07-30T07:22:53.082Z,64864.00
2018-07-30T07:23:53.094Z,69440.00
2018-07-30T07:24:53.087Z,71520.00
2018-07-30T07:25:53.051Z,74304.00
2018-07-30T07:26:53.135Z,69696.00
2018-07-30T07:27:52.993Z,77440.00
2018-07-30T07:28:52.973Z,80704.00
2018-07-30T07:29:52.963Z,82624.00
2018-07-30T07:30:52.962Z,80160.00
2018-07-30T07:31:52.985Z,77888.00
2018-07-30T07:32:52.905Z,80352.00
2018-07-30T07:33:52.904Z,85632.00
2018-07-30T07:34:52.895Z,87680.00
2018-07-30T07:35:52.877Z,88448.00
2018-07-30T07:36:52.838Z,83552.00
2018-07-30T07:37:52.847Z,78720.00
2018-07-30T07:38:52.824Z,80608.00
2018-07-30T07:39:52.811Z,85504.00
2018-07-30T07:40:52.790Z,86240.00
2018-07-30T07:41:52.746Z,85088.00
2018-07-30T07:42:52.747Z,82656.00
2018-07-30T07:43:52.718Z,84928.00
2018-07-30T07:44:52.749Z,86880.00
2018-07-30T07:45:52.745Z,90944.00
2018-07-30T07:46:52.695Z,97984.00
2018-07-30T07:47:52.655Z,100416.00
2018-07-30T07:48:52.675Z,98016.00
2018-07-30T07:49:52.648Z,96544.00
2018-07-30T07:50:52.852Z,94688.00
2018-07-30T07:51:52.641Z,94048.00
2018-07-30T07:52:52.565Z,83488.00
2018-07-30T07:53:52.603Z,98016.00
2018-07-30T07:54:52.609Z,102688.00
2018-07-30T07:55:52.619Z,108800.00
2018-07-30T07:56:52.541Z,105152.00
2018-07-30T07:57:52.515Z,54368.00
2018-07-30T07:58:52.524Z,57088.00
2018-07-30T07:59:52.489Z,75904.00
2018-07-30T08:00:52.452Z,57408.00
2018-07-30T08:01:52.452Z,70848.00
2018-07-30T08:02:52.429Z,85152.00
2018-07-30T08:03:52.470Z,85312.00
2018-07-30T08:04:52.414Z,89152.00
2018-07-30T08:05:52.391Z,88160.00
2018-07-30T08:06:52.447Z,87712.00
2018-07-30T08:07:52.407Z,88512.00
2018-07-30T08:08:52.376Z,88576.00
2018-07-30T08:09:52.415Z,90304.00
2018-07-30T08:10:52.408Z,95584.00
2018-07-30T08:11:52.344Z,99296.00
2018-07-30T08:12:52.314Z,75968.00
2018-07-30T08:13:52.264Z,54336.00
2018-07-30T08:14:52.259Z,75200.00
2018-07-30T08:15:52.243Z,78560.00
2018-07-30T08:16:52.295Z,87424.00
2018-07-30T08:17:52.222Z,72448.00
2018-07-30T08:18:52.196Z,49952.00
2018-07-30T08:19:52.197Z,61600.00
2018-07-30T08:20:52.176Z,100320.00
2018-07-30T08:21:52.151Z,83264.00
2018-07-30T08:22:52.169Z,72512.00
2018-07-30T08:23:52.136Z,83232.00
2018-07-30T08:24:52.118Z,109664.00
2018-07-30T08:25:52.117Z,62240.00
2018-07-30T08:26:52.089Z,88928.00
2018-07-30T08:27:52.069Z,57056.00
2018-07-30T08:28:52.061Z,88704.00
2018-07-30T08:29:52.043Z,83680.00
2018-07-30T08:30:52.041Z,87104.00
2018-07-30T08:31:52.059Z,96928.00
2018-07-30T08:32:52.036Z,92000.00
2018-07-30T08:33:52.003Z,90784.00
2018-07-30T08:34:51.972Z,86976.00
2018-07-30T08:35:51.972Z,85152.00
2018-07-30T08:36:52.009Z,88320.00
2018-07-30T08:37:51.941Z,90432.00
2018-07-30T08:38:51.987Z,90208.00
2018-07-30T08:39:51.935Z,89248.00
2018-07-30T08:40:51.917Z,91264.00
2018-07-30T08:41:51.889Z,91072.00
2018-07-30T08:42:51.892Z,91968.00
2018-07-30T08:43:51.853Z,100128.00
2018-07-30T08:44:51.911Z,107616.00
2018-07-30T08:45:51.871Z,103072.00
2018-07-30T08:46:51.843Z,97088.00
2018-07-30T08:47:51.807Z,94272.00
2018-07-30T08:48:51.816Z,92384.00
2018-07-30T08:49:51.795Z,93504.00
2018-07-30T08:50:51.804Z,88736.00
2018-07-30T08:51:51.763Z,85856.00
2018-07-30T08:52:51.759Z,88288.00
2018-07-30T08:53:51.753Z,91904.00
2018-07-30T08:54:51.732Z,96544.00
2018-07-30T08:55:51.715Z,96448.00
2018-07-30T08:56:51.700Z,100224.00
2018-07-30T08:57:51.691Z,106560.00
2018-07-30T08:58:51.675Z,100288.00
2018-07-30T08:59:51.641Z,92768.00
2018-07-30T09:00:51.631Z,76928.00
2018-07-30T09:01:51.607Z,102080.00
2018-07-30T09:02:51.593Z,84832.00
2018-07-30T09:03:51.569Z,27328.00
2018-07-30T09:04:51.563Z,26560.00
2018-07-30T09:05:51.543Z,29984.00
2018-07-30T09:06:51.570Z,116320.00
2018-07-30T09:07:51.524Z,118656.00
2018-07-30T09:08:51.527Z,131456.00
2018-07-30T09:09:51.488Z,128512.00
2018-07-30T09:10:51.488Z,42944.00
2018-07-30T09:11:51.476Z,31744.00
2018-07-30T09:12:51.603Z,34272.00
2018-07-30T09:13:51.440Z,56224.00
2018-07-30T09:14:51.412Z,138240.00
2018-07-30T09:15:51.401Z,68992.00
2018-07-30T09:16:51.404Z,134080.00
2018-07-30T09:17:51.384Z,38464.00
2018-07-30T09:18:51.366Z,34784.00
2018-07-30T09:19:51.350Z,34816.00
2018-07-30T09:20:51.351Z,43008.00
2018-07-30T09:21:51.314Z,31520.00
2018-07-30T09:22:51.311Z,41632.00
2018-07-30T09:23:51.320Z,50016.00
2018-07-30T09:24:51.276Z,125856.00
2018-07-30T09:25:51.263Z,131072.00
2018-07-30T09:26:51.298Z,127744.00
2018-07-30T09:27:51.230Z,130144.00
2018-07-30T09:28:51.209Z,132384.00
2018-07-30T09:29:51.194Z,127712.00
2018-07-30T09:30:51.191Z,111648.00
2018-07-30T09:31:51.181Z,98688.00
2018-07-30T09:32:51.231Z,102272.00
2018-07-30T09:33:51.135Z,103264.00
2018-07-30T09:34:51.128Z,103392.00
2018-07-30T09:35:51.117Z,94048.00
2018-07-30T09:36:51.190Z,88320.00
2018-07-30T09:37:51.064Z,112224.00
2018-07-30T09:38:51.225Z,113376.00
2018-07-30T09:39:51.056Z,107936.00
2018-07-30T09:40:51.023Z,54880.00
2018-07-30T09:41:51.009Z,103552.00
2018-07-30T09:42:51.006Z,101664.00
2018-07-30T09:43:50.990Z,102240.00
2018-07-30T09:44:51.008Z,81344.00
2018-07-30T09:45:51.020Z,52288.00
2018-07-30T09:46:50.947Z,32224.00
2018-07-30T09:47:50.938Z,34848.00
2018-07-30T09:48:50.917Z,37952.00
2018-07-30T09:49:50.893Z,112160.00
2018-07-30T09:50:50.902Z,30720.00
2018-07-30T09:51:50.886Z,27904.00
2018-07-30T09:52:50.872Z,26112.00
2018-07-30T09:53:50.850Z,25088.00
2018-07-30T09:54:50.849Z,25664.00
2018-07-30T09:55:50.820Z,26272.00
2018-07-30T09:56:50.934Z,28064.00
2018-07-30T09:57:50.774Z,32032.00
2018-07-30T09:58:50.769Z,54400.00
2018-07-30T09:59:50.779Z,28672.00
2018-07-30T10:00:50.737Z,32096.00
2018-07-30T10:01:50.717Z,30496.00
2018-07-30T10:02:50.724Z,30944.00
2018-07-30T10:03:50.703Z,28320.00
2018-07-30T10:04:50.675Z,27008.00
2018-07-30T10:05:50.639Z,26528.00
2018-07-30T10:06:50.666Z,27712.00
2018-07-30T10:07:50.611Z,60608.00
2018-07-30T10:08:50.588Z,29952.00
2018-07-30T10:09:50.585Z,28224.00
2018-07-30T10:10:50.591Z,27552.00
2018-07-30T10:11:50.539Z,26880.00
2018-07-30T10:12:50.524Z,26880.00
2018-07-30T10:13:50.507Z,26272.00
2018-07-30T10:14:50.485Z,26112.00
2018-07-30T10:15:50.474Z,26336.00
2018-07-30T10:16:50.458Z,26176.00
2018-07-30T10:17:50.520Z,25312.00
2018-07-30T10:18:50.473Z,24768.00
2018-07-30T10:19:50.425Z,25568.00
2018-07-30T10:20:50.419Z,24960.00
2018-07-30T10:21:50.356Z,23872.00
2018-07-30T10:22:50.359Z,24608.00
2018-07-30T10:23:50.327Z,27776.00
2018-07-30T10:24:50.325Z,124320.00
2018-07-30T10:25:50.290Z,121536.00
2018-07-30T10:26:50.275Z,116160.00
2018-07-30T10:27:50.264Z,122240.00
2018-07-30T10:28:50.294Z,127744.00
2018-07-30T10:29:50.219Z,58368.00
2018-07-30T10:30:50.265Z,33984.00
2018-07-30T10:31:50.162Z,37792.00
2018-07-30T10:32:50.153Z,54432.00
2018-07-30T10:33:50.150Z,128448.00
2018-07-30T10:34:50.119Z,108928.00
2018-07-30T10:35:50.096Z,100864.00
2018-07-30T10:36:50.076Z,119904.00
2018-07-30T10:37:50.061Z,134272.00
2018-07-30T10:38:50.035Z,76640.00
2018-07-30T10:39:50.049Z,31648.00
2018-07-30T10:40:49.997Z,31968.00
2018-07-30T10:41:49.987Z,43360.00
2018-07-30T10:42:49.953Z,37728.00
2018-07-30T10:43:49.939Z,83424.00
2018-07-30T10:44:49.916Z,44928.00
2018-07-30T10:45:49.907Z,91072.00
2018-07-30T10:46:49.884Z,115424.00
2018-07-30T10:47:49.908Z,117152.00
2018-07-30T10:48:49.851Z,114336.00
2018-07-30T10:49:49.825Z,124160.00
2018-07-30T10:50:49.831Z,132896.00
2018-07-30T10:51:49.793Z,120992.00
2018-07-30T10:52:49.780Z,119360.00
2018-07-30T10:53:49.792Z,131840.00
2018-07-30T10:54:49.769Z,125920.00
2018-07-30T10:55:49.724Z,105856.00
2018-07-30T10:56:49.718Z,102912.00
2018-07-30T10:57:49.711Z,119456.00
2018-07-30T10:58:49.657Z,122176.00
2018-07-30T10:59:49.655Z,58976.00
2018-07-30T11:00:49.645Z,33568.00
2018-07-30T11:01:49.626Z,134464.00
2018-07-30T11:02:49.604Z,129216.00
2018-07-30T11:03:49.588Z,126400.00
2018-07-30T11:04:49.588Z,120928.00
2018-07-30T11:05:49.569Z,128608.00
2018-07-30T11:06:49.536Z,147936.00
2018-07-30T11:07:49.563Z,26432.00
2018-07-30T11:08:49.527Z,24928.00
2018-07-30T11:09:49.493Z,24576.00
2018-07-30T11:10:49.477Z,24576.00
2018-07-30T11:11:49.489Z,26464.00
2018-07-30T11:12:49.441Z,122560.00
2018-07-30T11:13:49.421Z,87744.00
2018-07-30T11:14:49.530Z,136992.00
2018-07-30T11:15:49.401Z,132064.00
2018-07-30T11:16:49.378Z,120800.00
2018-07-30T11:17:49.353Z,26688.00
2018-07-30T11:18:49.397Z,22848.00
2018-07-30T11:19:49.331Z,21792.00
2018-07-30T11:20:49.366Z,21312.00
2018-07-30T11:21:49.290Z,22048.00
2018-07-30T11:22:49.296Z,22464.00
2018-07-30T11:23:49.262Z,29408.00
2018-07-30T11:24:49.239Z,63008.00
2018-07-30T11:25:49.217Z,117600.00
2018-07-30T11:26:49.217Z,107392.00
2018-07-30T11:27:49.299Z,104320.00
2018-07-30T11:28:49.165Z,138432.00
2018-07-30T11:29:49.165Z,36320.00
2018-07-30T11:30:49.137Z,30816.00
2018-07-30T11:31:49.125Z,29056.00
2018-07-30T11:32:49.142Z,29344.00
2018-07-30T11:33:49.087Z,31456.00
2018-07-30T11:34:49.132Z,31680.00
2018-07-30T11:35:49.042Z,32096.00
2018-07-30T11:36:49.032Z,32000.00
2018-07-30T11:37:49.009Z,31744.00
2018-07-30T11:38:48.994Z,33184.00
2018-07-30T11:39:49.002Z,34688.00
2018-07-30T11:40:48.959Z,34944.00
2018-07-30T11:41:48.957Z,33440.00
2018-07-30T11:42:48.986Z,30976.00
2018-07-30T11:43:48.905Z,29056.00
2018-07-30T11:44:48.911Z,28352.00
2018-07-30T11:45:48.880Z,28192.00
2018-07-30T11:46:48.859Z,29088.00
2018-07-30T11:47:48.884Z,30784.00
2018-07-30T11:48:48.946Z,31776.00
2018-07-30T11:49:48.828Z,31808.00
2018-07-30T11:50:48.806Z,31712.00
2018-07-30T11:51:48.803Z,32000.00
2018-07-30T11:52:48.778Z,32224.00
2018-07-30T11:53:48.716Z,32384.00
2018-07-30T11:54:48.703Z,32480.00
2018-07-30T11:55:48.690Z,32320.00
2018-07-30T11:56:48.665Z,32128.00
2018-07-30T11:57:48.701Z,31840.00
2018-07-30T11:58:48.685Z,31936.00
2018-07-30T11:59:48.607Z,32384.00
2018-07-30T12:00:48.592Z,33472.00
2018-07-30T12:01:48.634Z,34816.00
2018-07-30T12:02:48.549Z,36032.00
2018-07-30T12:03:48.533Z,37216.00
2018-07-30T12:04:48.550Z,39296.00
2018-07-30T12:05:48.488Z,42368.00
2018-07-30T12:06:48.478Z,47488.00
2018-07-30T12:07:48.453Z,49472.00
2018-07-30T12:08:48.447Z,87680.00